Time;durP1;ratioP1;P1;durP2;ratioP2;P2;SDS_P1;SDS_P2;PMS_P1;PMS_P2;Temp;Humidity;BMP_temperature;BMP_pressure;BME280_temperature;BME280_humidity;BME280_pressure;Samples;Min_cycle;Max_cycle;Signal;HPM_P1;HPM_P2
2022/04/30 00:01:57;;;;;;;5.30;2.55;;;;;;;20.47;35.01;102803.56;5093251;28;20534;-65
2022/04/30 00:04:23;;;;;;;3.88;2.25;;;;;;;20.45;34.90;102801.94;5093377;28;20107;-65
2022/04/30 00:06:51;;;;;;;4.73;2.63;;;;;;;20.44;34.83;102805.53;5092403;28;20107;-65
2022/04/30 00:09:16;;;;;;;4.35;2.40;;;;;;;20.42;34.77;102796.81;5093110;28;20358;-65
2022/04/30 00:11:41;;;;;;;3.43;2.20;;;;;;;20.40;34.84;102794.25;5093089;28;20483;-65
2022/04/30 00:14:06;;;;;;;4.73;2.27;;;;;;;20.40;34.81;102804.84;5092315;28;20515;-65
2022/04/30 00:16:38;;;;;;;5.63;2.47;;;;;;;20.38;34.88;102801.47;5093337;28;20829;-65
2022/04/30 00:19:03;;;;;;;4.20;2.47;;;;;;;20.38;34.75;102800.63;5091977;28;20314;-64
2022/04/30 00:21:31;;;;;;;3.58;2.20;;;;;;;20.38;34.85;102803.28;5093032;28;20089;-64
2022/04/30 00:23:56;;;;;;;4.03;2.47;;;;;;;20.36;34.67;102803.34;5092475;28;20027;-65
2022/04/30 00:26:22;;;;;;;4.20;2.20;;;;;;;20.35;34.79;102806.94;5092486;28;20024;-64
2022/04/30 00:28:52;;;;;;;4.00;2.25;;;;;;;20.34;34.54;102799.09;5093115;28;20032;-65
2022/04/30 00:31:17;;;;;;;3.63;2.08;;;;;;;20.33;34.73;102797.38;5092726;28;20468;-65
2022/04/30 00:33:47;;;;;;;3.42;2.20;;;;;;;20.30;34.64;102801.06;5092233;28;20042;-64
2022/04/30 00:36:12;;;;;;;4.05;2.40;;;;;;;20.29;34.75;102802.84;5092511;28;20020;-65
2022/04/30 00:38:38;;;;;;;4.20;2.13;;;;;;;20.28;34.73;102801.16;5092645;28;20085;-65
2022/04/30 00:41:03;;;;;;;3.28;2.15;;;;;;;20.27;34.76;102795.97;5091947;28;20028;-65
2022/04/30 00:43:28;;;;;;;3.33;2.15;;;;;;;20.26;34.78;102802.19;5092692;28;20101;-65
2022/04/30 00:45:54;;;;;;;3.83;2.30;;;;;;;20.23;34.79;102794.44;5092528;28;20372;-65
2022/04/30 00:48:22;;;;;;;3.63;2.13;;;;;;;20.24;34.77;102791.69;5092074;28;20028;-65
2022/04/30 00:50:49;;;;;;;4.20;2.20;;;;;;;20.22;34.76;102788.28;5092214;28;20510;-64
2022/04/30 00:53:19;;;;;;;3.95;2.25;;;;;;;20.21;34.72;102783.09;5092518;28;20422;-64
2022/04/30 00:55:49;;;;;;;3.90;2.13;;;;;;;20.21;34.56;102783.09;5091822;28;20016;-64
2022/04/30 00:58:20;;;;;;;3.33;2.05;;;;;;;20.19;34.75;102777.88;5092829;28;20137;-64
2022/04/30 01:00:48;;;;;;;4.60;1.92;;;;;;;20.19;34.71;102779.69;5092700;28;20031;-64
2022/04/30 01:03:13;;;;;;;3.70;2.05;;;;;;;20.18;34.52;102777.97;5095143;28;20082;-65
2022/04/30 01:05:39;;;;;;;4.07;2.03;;;;;;;20.16;34.50;102770.13;5096625;28;20024;-64
2022/04/30 01:08:04;;;;;;;3.80;2.10;;;;;;;20.15;34.50;102775.50;5096401;28;20276;-64
2022/04/30 01:10:31;;;;;;;3.88;2.05;;;;;;;20.14;34.57;102782.59;5096116;28;20460;-65
2022/04/30 01:12:57;;;;;;;4.55;2.10;;;;;;;20.14;34.66;102779.09;5095895;28;20488;-65
2022/04/30 01:15:22;;;;;;;3.78;2.05;;;;;;;20.12;34.65;102779.19;5095680;28;20081;-65
2022/04/30 01:17:48;;;;;;;3.00;1.80;;;;;;;20.11;34.51;102780.13;5096366;28;20105;-65
2022/04/30 01:20:14;;;;;;;3.42;2.00;;;;;;;20.10;34.75;102783.72;5096564;28;20016;-65
2022/04/30 01:23:04;;;;;;;3.63;2.20;;;;;;;20.08;34.65;102775.03;5095778;28;20020;-65
2022/04/30 01:25:31;;;;;;;3.75;2.00;;;;;;;20.07;34.49;102773.31;5096458;28;20118;-64
2022/04/30 01:27:59;;;;;;;3.83;2.10;;;;;;;20.06;34.73;102772.47;5095821;28;20479;-65
2022/04/30 01:30:24;;;;;;;4.20;1.95;;;;;;;20.05;34.68;102773.41;5095395;28;20077;-64
2022/04/30 01:38:20;;;;;;;3.70;2.17;;;;;;;20.03;34.61;102767.34;5095291;28;20108;-65
2022/04/30 01:40:48;;;;;;;3.10;1.77;;;;;;;20.01;34.61;102760.44;5096050;28;20377;-65
2022/04/30 01:43:15;;;;;;;3.40;1.85;;;;;;;20.01;34.72;102763.09;5095959;28;20111;-65
2022/04/30 01:45:44;;;;;;;2.95;1.67;;;;;;;20.00;34.63;102759.59;5095880;28;20070;-65
2022/04/30 01:48:12;;;;;;;3.60;1.80;;;;;;;19.98;34.64;102756.19;5095694;28;20024;-65
2022/04/30 01:50:37;;;;;;;4.43;1.95;;;;;;;19.98;34.78;102757.97;5095066;28;20430;-64
2022/04/30 01:53:03;;;;;;;3.17;1.80;;;;;;;19.94;34.63;102760.78;5095415;28;20020;-64
2022/04/30 01:55:28;;;;;;;4.53;2.03;;;;;;;19.95;34.67;102756.38;5095547;28;20020;-64
2022/04/30 01:57:53;;;;;;;3.03;1.77;;;;;;;19.93;34.69;102759.13;5094474;28;20027;-64
2022/04/30 02:00:20;;;;;;;3.33;2.00;;;;;;;19.92;34.64;102760.03;5095512;28;20040;-64
2022/04/30 02:02:53;;;;;;;3.15;1.80;;;;;;;19.92;34.70;102760.03;5095774;28;20032;-65
2022/04/30 02:05:20;;;;;;;3.33;1.70;;;;;;;19.91;34.67;102757.47;5094865;28;20024;-65
2022/04/30 02:08:07;;;;;;;3.15;1.70;;;;;;;19.89;34.66;102749.63;5096635;28;20106;-65
2022/04/30 02:10:38;;;;;;;3.80;1.83;;;;;;;19.89;34.83;102747.00;5097522;28;20059;-65
2022/04/30 02:13:06;;;;;;;3.85;1.95;;;;;;;19.90;34.60;102750.47;5095893;28;20044;-65
2022/04/30 02:15:34;;;;;;;2.92;1.67;;;;;;;19.88;34.59;102749.72;5096166;28;20145;-65
2022/04/30 02:18:06;;;;;;;3.83;1.90;;;;;;;19.87;34.62;102751.53;5095019;28;20028;-64
2022/04/30 02:20:38;;;;;;;3.33;1.73;;;;;;;19.87;34.80;102742.75;5094981;28;20024;-65
2022/04/30 02:23:08;;;;;;;3.38;1.80;;;;;;;19.87;34.81;102742.75;5094761;28;20503;-65
2022/04/30 02:25:33;;;;;;;3.75;2.08;;;;;;;19.86;34.59;102747.16;5094487;28;20045;-65
2022/04/30 02:28:04;;;;;;;4.90;1.73;;;;;;;19.83;34.62;102744.69;5094959;28;20020;-65
2022/04/30 02:30:29;;;;;;;3.97;1.80;;;;;;;19.83;34.64;102735.91;5095132;28;20028;-65
2022/04/30 02:33:03;;;;;;;2.75;1.55;;;;;;;19.83;34.49;102743.84;5093950;28;20031;-65
2022/04/30 02:35:31;;;;;;;3.45;1.63;;;;;;;19.82;34.60;102736.84;5094956;28;20463;-65
2022/04/30 02:37:59;;;;;;;3.85;1.90;;;;;;;19.80;34.59;102736.94;5094716;28;20467;-65
2022/04/30 02:40:29;;;;;;;4.55;1.60;;;;;;;19.80;34.69;102733.47;5094196;28;20386;-65
2022/04/30 02:43:04;;;;;;;3.70;1.83;;;;;;;19.79;34.60;102731.75;5094430;28;20040;-64
2022/04/30 02:45:29;;;;;;;3.97;1.83;;;;;;;19.78;34.51;102733.53;5094730;28;20024;-65
2022/04/30 02:47:56;;;;;;;2.97;1.70;;;;;;;19.77;34.52;102734.47;5093689;28;20039;-65
2022/04/30 02:50:23;;;;;;;4.53;1.95;;;;;;;19.78;34.53;102733.53;5094788;28;20269;-65
2022/04/30 02:52:55;;;;;;;3.30;1.50;;;;;;;19.76;34.50;102727.50;5094599;28;20047;-65
2022/04/30 02:55:21;;;;;;;4.55;1.85;;;;;;;19.75;34.54;102731.88;5093980;28;20073;-65
2022/04/30 03:00:39;;;;;;;3.20;1.70;;;;;;;19.74;34.64;102726.69;5094458;28;20047;-65
2022/04/30 03:03:11;;;;;;;3.25;1.58;;;;;;;19.72;34.35;102724.13;5094192;28;20020;-65
2022/04/30 03:05:39;;;;;;;2.72;1.50;;;;;;;19.73;34.66;102731.13;5094271;28;20020;-65
2022/04/30 03:08:15;;;;;;;3.83;1.55;;;;;;;19.70;34.79;102731.31;5093260;28;20555;-65
2022/04/30 03:10:41;;;;;;;3.75;1.88;;;;;;;19.71;34.54;102735.66;5094218;28;20032;-64
2022/04/30 03:13:07;;;;;;;3.55;1.67;;;;;;;19.69;34.47;102734.91;5093684;28;20040;-65
2022/04/30 03:15:39;;;;;;;3.75;1.75;;;;;;;19.68;34.49;102735.84;5093297;28;20020;-65
2022/04/30 03:23:37;;;;;;;3.00;1.60;;;;;;;19.66;34.59;102731.56;5099078;28;19982;-64
2022/04/30 03:26:12;;;;;;;2.97;1.63;;;;;;;19.65;34.43;102730.72;5093398;28;20464;-65
2022/04/30 03:28:38;;;;;;;3.60;1.95;;;;;;;19.63;34.63;102719.41;5093893;28;20516;-65
2022/04/30 03:31:05;;;;;;;3.33;1.80;;;;;;;19.63;34.39;102723.81;5092188;28;20066;-64
2022/04/30 03:33:30;;;;;;;3.20;1.67;;;;;;;19.61;34.51;102723.06;5093617;28;20090;-64
2022/04/30 03:35:55;;;;;;;4.60;1.80;;;;;;;19.61;34.52;102720.41;5092658;28;20544;-65
2022/04/30 03:38:21;;;;;;;4.00;1.88;;;;;;;19.61;34.54;102713.31;5093898;28;20073;-64
2022/04/30 03:40:47;;;;;;;3.40;1.70;;;;;;;19.61;34.41;102712.47;5093711;28;20028;-65
2022/04/30 03:43:14;;;;;;;3.70;1.80;;;;;;;19.59;34.75;102704.63;5092612;28;20028;-65
2022/04/30 03:45:41;;;;;;;3.03;1.63;;;;;;;19.57;34.65;102704.72;5093676;28;20020;-65
2022/04/30 03:48:07;;;;;;;3.22;1.70;;;;;;;19.58;34.54;102708.22;5093106;28;20031;-64
2022/04/30 03:50:32;;;;;;;3.97;1.80;;;;;;;19.57;34.48;102709.19;5093019;28;20027;-64
2022/04/30 03:52:57;;;;;;;3.63;1.70;;;;;;;19.55;34.54;102706.63;5093154;28;20020;-65
2022/04/30 03:55:23;;;;;;;4.22;1.70;;;;;;;19.55;34.53;102700.44;5093580;28;20028;-65
2022/04/30 03:57:48;;;;;;;4.07;1.75;;;;;;;19.53;34.61;102703.19;5092677;28;20039;-64
2022/04/30 04:00:14;;;;;;;2.80;1.48;;;;;;;19.53;34.43;102710.28;5093315;28;20016;-65
2022/04/30 04:02:41;;;;;;;3.63;1.88;;;;;;;19.53;34.44;102711.13;5093217;28;20024;-65
2022/04/30 04:05:08;;;;;;;4.28;1.80;;;;;;;19.52;34.40;102712.09;5092478;28;20027;-65
2022/04/30 04:07:33;;;;;;;3.17;1.50;;;;;;;19.51;34.70;102702.44;5093448;28;20020;-64
2022/04/30 04:09:59;;;;;;;3.25;1.60;;;;;;;19.52;34.61;102713.88;5093175;28;20487;-64
2022/04/30 04:12:24;;;;;;;3.20;1.70;;;;;;;19.53;34.68;102712.91;5092326;28;20044;-64
2022/04/30 04:17:40;;;;;;;2.65;1.45;;;;;;;19.61;34.53;102715.13;5093596;28;20028;-65
2022/04/30 04:20:08;;;;;;;3.05;1.65;;;;;;;19.63;34.52;102714.09;5092146;28;20024;-65
2022/04/30 04:22:34;;;;;;;3.30;1.80;;;;;;;19.67;34.48;102718.25;5092676;28;20051;-65
2022/04/30 04:27:43;;;;;;;3.83;1.70;;;;;;;19.73;34.31;102714.41;5093230;28;20430;-65
2022/04/30 04:30:09;;;;;;;3.90;1.80;;;;;;;19.75;34.25;102712.53;5092751;28;20020;-65
2022/04/30 04:32:34;;;;;;;3.40;1.67;;;;;;;19.77;34.15;102715.94;5092447;28;20027;-64
2022/04/30 04:34:59;;;;;;;3.70;1.70;;;;;;;19.80;33.96;102720.22;5092488;28;20468;-64
2022/04/30 04:37:25;;;;;;;3.88;1.85;;;;;;;19.80;33.97;102720.22;5092382;28;20055;-65
2022/04/30 04:39:50;;;;;;;3.33;1.60;;;;;;;19.81;34.05;102724.59;5091730;28;20024;-65
2022/04/30 04:42:16;;;;;;;3.75;1.70;;;;;;;19.82;34.03;102721.84;5092816;28;20379;-66
2022/04/30 04:44:41;;;;;;;3.40;1.67;;;;;;;19.83;33.94;102722.69;5092769;28;20020;-65
2022/04/30 04:47:07;;;;;;;4.03;1.90;;;;;;;19.84;33.96;102725.25;5091600;28;20070;-65
2022/04/30 04:49:32;;;;;;;3.28;1.60;;;;;;;19.84;33.83;102727.06;5092814;28;20038;-66
2022/04/30 04:51:58;;;;;;;3.30;1.70;;;;;;;19.84;33.89;102727.06;5092356;28;20107;-65
2022/04/30 04:54:23;;;;;;;3.67;1.73;;;;;;;19.86;33.79;102731.28;5091816;28;20028;-65
2022/04/30 04:56:49;;;;;;;2.95;1.70;;;;;;;19.84;33.75;102735.84;5092280;28;20016;-65
2022/04/30 04:59:14;;;;;;;3.35;1.50;;;;;;;19.85;33.72;102741.97;5092888;28;20031;-65
2022/04/30 05:01:40;;;;;;;3.92;1.80;;;;;;;19.85;33.69;102742.84;5092010;28;20024;-66
2022/04/30 05:04:08;;;;;;;3.83;1.70;;;;;;;19.85;33.88;102745.47;5092447;28;20025;-66
2022/04/30 05:06:34;;;;;;;4.10;2.08;;;;;;;19.86;33.86;102748.97;5092653;28;20020;-65
2022/04/30 05:08:59;;;;;;;3.17;1.58;;;;;;;19.85;33.87;102752.53;5091477;28;20024;-64
2022/04/30 05:11:24;;;;;;;3.07;1.67;;;;;;;19.84;33.80;102748.22;5092346;28;20531;-64
2022/04/30 05:13:49;;;;;;;3.55;1.73;;;;;;;19.85;33.86;102756.06;5092141;28;20522;-64
2022/04/30 05:16:14;;;;;;;4.82;1.90;;;;;;;19.81;33.88;102749.25;5091859;28;20020;-64
2022/04/30 05:18:40;;;;;;;2.77;1.60;;;;;;;19.85;34.02;102749.91;5092630;28;20130;-64
2022/04/30 05:21:05;;;;;;;2.97;1.70;;;;;;;19.84;34.23;102749.06;5092025;28;20273;-67
2022/04/30 05:23:32;;;;;;;3.90;1.80;;;;;;;19.86;34.49;102751.63;5091777;28;20503;-64
2022/04/30 05:25:58;;;;;;;3.30;1.90;;;;;;;19.87;34.44;102751.53;5092113;28;20012;-64
2022/04/30 05:28:23;;;;;;;4.13;1.77;;;;;;;19.89;34.12;102748.78;5091436;28;20023;-65
2022/04/30 05:30:48;;;;;;;4.03;1.70;;;;;;;19.92;34.63;102751.25;5092118;28;20430;-65
2022/04/30 05:33:16;;;;;;;3.37;1.90;;;;;;;19.92;34.99;102753.91;5092213;28;20285;-65
2022/04/30 05:35:42;;;;;;;2.38;1.40;;;;;;;19.93;35.26;102758.25;5091221;28;20272;-65
2022/04/30 05:38:07;;;;;;;3.17;1.38;;;;;;;19.94;35.36;102760.78;5091869;28;20028;-66
2022/04/30 05:40:32;;;;;;;2.47;1.30;;;;;;;19.95;35.51;102756.38;5091943;28;20051;-65
2022/04/30 05:42:58;;;;;;;4.63;1.73;;;;;;;19.97;35.28;102753.63;5090988;28;20793;-65
2022/04/30 05:45:23;;;;;;;3.83;1.80;;;;;;;19.99;35.55;102757.03;5091839;28;20686;-66
2022/04/30 05:47:48;;;;;;;3.38;1.42;;;;;;;20.01;35.23;102757.78;5091874;28;20016;-66
2022/04/30 05:50:14;;;;;;;3.17;1.60;;;;;;;20.05;35.37;102764.63;5094185;28;20024;-66
2022/04/30 05:52:39;;;;;;;3.50;1.80;;;;;;;20.07;35.32;102757.44;5095592;28;20020;-66
2022/04/30 05:55:05;;;;;;;3.47;1.87;;;;;;;20.07;35.02;102766.22;5095033;28;20333;-65
2022/04/30 05:57:30;;;;;;;3.47;1.85;;;;;;;20.09;35.18;102763.47;5094814;28;20664;-67
2022/04/30 05:59:56;;;;;;;5.10;2.00;;;;;;;20.13;35.06;102764.16;5095298;28;20024;-65
2022/04/30 06:02:22;;;;;;;3.78;1.60;;;;;;;20.16;34.99;102769.28;5095828;28;20027;-64
2022/04/30 06:04:47;;;;;;;3.85;1.73;;;;;;;20.19;35.12;102766.44;5095146;28;20035;-67
2022/04/30 06:07:16;;;;;;;3.85;1.92;;;;;;;20.18;35.60;102767.38;5095462;28;20117;-65
2022/04/30 06:09:41;;;;;;;4.00;1.83;;;;;;;20.15;36.22;102768.41;5095225;28;20048;-64
2022/04/30 06:12:10;;;;;;;6.22;2.80;;;;;;;20.13;36.75;102769.47;5094290;28;20125;-63
2022/04/30 06:14:36;;;;;;;5.82;2.47;;;;;;;20.11;37.15;102772.19;5095517;28;20043;-65
2022/04/30 06:17:01;;;;;;;4.78;2.17;;;;;;;20.11;37.55;102773.03;5095241;28;20020;-68
2022/04/30 06:19:39;;;;;;;5.00;2.38;;;;;;;20.13;37.82;102775.59;5095392;28;20043;-63
2022/04/30 06:22:04;;;;;;;5.30;2.22;;;;;;;20.14;37.96;102782.59;5094796;28;20051;-63
2022/04/30 06:24:29;;;;;;;6.00;2.60;;;;;;;20.14;38.23;102774.66;5095146;28;20032;-67
2022/04/30 06:26:55;;;;;;;7.77;2.30;;;;;;;20.16;38.12;102772.75;5094340;28;20038;-66
2022/04/30 06:29:22;;;;;;;7.03;2.25;;;;;;;20.19;38.22;102777.03;5095647;28;20277;-65
2022/04/30 06:31:47;;;;;;;5.97;2.20;;;;;;;20.23;38.32;102773.25;5094257;28;20414;-65
2022/04/30 06:34:13;;;;;;;6.15;2.10;;;;;;;20.27;38.19;102770.31;5095197;28;20027;-67
2022/04/30 06:36:38;;;;;;;5.70;2.60;;;;;;;20.30;38.00;102771.94;5094890;28;20032;-65
2022/04/30 06:39:04;;;;;;;5.50;2.30;;;;;;;20.35;38.34;102772.50;5093796;28;20073;-64
2022/04/30 06:41:29;;;;;;;6.13;2.30;;;;;;;20.39;38.07;102774.00;5095069;28;20340;-64
2022/04/30 06:43:54;;;;;;;6.68;2.40;;;;;;;20.43;38.02;102772.91;5095081;28;20036;-66
2022/04/30 06:46:19;;;;;;;4.90;2.20;;;;;;;20.47;37.68;102766.47;5094635;28;20024;-64
2022/04/30 06:48:45;;;;;;;5.57;2.30;;;;;;;20.50;37.78;102770.72;5095466;28;20329;-67
2022/04/30 06:51:13;;;;;;;4.47;2.17;;;;;;;20.56;37.76;102767.69;5095305;28;20050;-66
2022/04/30 06:59:10;;;;;;;6.90;2.28;;;;;;;20.60;37.92;102771.88;5095772;28;20077;-67
2022/04/30 07:01:52;;;;;;;5.93;2.17;;;;;;;20.58;37.99;102778.19;5095149;28;20031;-65
2022/04/30 07:04:18;;;;;;;5.85;2.20;;;;;;;20.58;38.09;102770.25;5095577;28;20016;-66
2022/04/30 07:06:45;;;;;;;4.35;2.00;;;;;;;20.57;38.06;102774.72;5095042;28;20073;-64
2022/04/30 07:09:13;;;;;;;5.32;2.15;;;;;;;20.59;37.92;102777.25;5093674;28;20016;-64
2022/04/30 07:11:38;;;;;;;4.20;2.08;;;;;;;20.60;37.85;102778.94;5094058;28;20040;-65
2022/04/30 07:14:04;;;;;;;5.32;1.88;;;;;;;20.61;38.04;102768.25;5093440;28;20028;-63
2022/04/30 07:16:29;;;;;;;6.15;2.05;;;;;;;20.67;37.78;102775.03;5094278;28;20050;-64
2022/04/30 07:18:54;;;;;;;4.95;2.15;;;;;;;20.71;37.74;102773.03;5094087;28;20472;-67
2022/04/30 07:21:20;;;;;;;4.75;2.10;;;;;;;20.72;37.69;102778.22;5093611;28;20447;-64
2022/04/30 07:23:51;;;;;;;4.20;1.97;;;;;;;20.76;37.51;102774.47;5094225;28;20058;-68
2022/04/30 07:26:19;;;;;;;4.32;2.00;;;;;;;20.79;37.58;102779.56;5094789;28;20261;-66
2022/04/30 07:28:46;;;;;;;5.35;2.40;;;;;;;20.84;37.55;102787.22;5093792;28;20028;-65
2022/04/30 07:31:11;;;;;;;4.80;2.20;;;;;;;20.88;37.58;102779.94;5093795;28;20031;-65
2022/04/30 07:33:37;;;;;;;6.15;2.20;;;;;;;20.90;37.34;102773.56;5094184;28;20032;-65
2022/04/30 07:36:03;;;;;;;5.05;1.83;;;;;;;20.92;37.37;102769.03;5093143;28;20034;-63
2022/04/30 07:38:28;;;;;;;3.67;1.70;;;;;;;20.93;37.29;102769.88;5093358;28;20012;-65
2022/04/30 07:40:53;;;;;;;5.47;2.17;;;;;;;20.94;37.26;102767.13;5093836;28;20028;-66
2022/04/30 07:43:21;;;;;;;4.40;2.00;;;;;;;20.96;37.32;102767.03;5093060;28;20363;-66
2022/04/30 07:45:55;;;;;;;4.47;2.00;;;;;;;20.97;37.14;102769.59;5093803;28;20275;-66
2022/04/30 07:48:20;;;;;;;;;;;;;;;20.98;37.19;102763.34;5092719;28;20024;-65
2022/04/30 07:50:46;;;;;;;6.07;2.03;;;;;;;21.00;37.23;102758.81;5093132;28;20382;-66
2022/04/30 07:53:14;;;;;;;5.10;2.20;;;;;;;21.02;37.02;102756.06;5093795;28;20024;-67
2022/04/30 07:55:41;;;;;;;7.97;2.28;;;;;;;21.04;37.24;102759.44;5093904;28;20028;-63
2022/04/30 07:58:07;;;;;;;6.13;2.00;;;;;;;21.05;37.16;102757.66;5092233;28;20028;-62
2022/04/30 08:00:32;;;;;;;5.25;2.00;;;;;;;21.06;37.13;102759.34;5093548;28;20501;-60
2022/04/30 08:02:59;;;;;;;4.35;2.13;;;;;;;21.07;37.03;102755.75;5093345;28;20475;-62
2022/04/30 08:05:26;;;;;;;4.15;1.73;;;;;;;21.09;36.96;102759.16;5092455;28;20020;-61
2022/04/30 08:07:51;;;;;;;4.13;1.65;;;;;;;21.07;37.00;102753.97;5092930;28;20024;-62
2022/04/30 08:10:17;;;;;;;5.63;1.80;;;;;;;21.03;37.21;102752.47;5092791;28;20027;-61
2022/04/30 08:12:43;;;;;;;4.10;2.13;;;;;;;21.04;37.24;102754.16;5091880;28;20036;-62
2022/04/30 08:15:09;;;;;;;3.72;1.90;;;;;;;21.02;37.13;102756.91;5092706;28;20426;-59
2022/04/30 08:17:34;;;;;;;3.15;1.67;;;;;;;21.04;37.17;102759.44;5092466;28;20048;-62
2022/04/30 08:20:03;;;;;;;5.68;1.95;;;;;;;21.05;37.00;102752.38;5092585;28;20055;-62
2022/04/30 08:22:28;;;;;;;5.13;2.00;;;;;;;21.07;37.07;102745.16;5093080;28;20028;-60
2022/04/30 08:24:53;;;;;;;3.50;1.80;;;;;;;21.07;36.97;102748.66;5091618;28;20070;-61
2022/04/30 08:27:20;;;;;;;4.57;1.73;;;;;;;21.08;37.13;102754.78;5092790;28;20752;-65
2022/04/30 08:29:45;;;;;;;4.25;1.98;;;;;;;21.07;37.24;102747.81;5092941;28;20277;-63
2022/04/30 08:32:16;;;;;;;5.30;1.80;;;;;;;21.08;37.32;102746.84;5091745;28;20085;-64
2022/04/30 08:34:42;;;;;;;3.42;1.77;;;;;;;21.06;37.19;102739.03;5092768;28;20104;-63
2022/04/30 08:37:07;;;;;;;4.20;1.80;;;;;;;21.05;37.21;102753.22;5092342;28;20472;-63
2022/04/30 08:39:32;;;;;;;4.90;1.95;;;;;;;21.04;37.32;102745.34;5091789;28;20072;-65
2022/04/30 08:41:58;;;;;;;5.45;1.73;;;;;;;21.04;37.11;102740.91;5092458;28;20020;-65
2022/04/30 08:44:30;;;;;;;5.22;1.95;;;;;;;21.01;37.20;102744.63;5092813;28;20471;-66
2022/04/30 08:46:56;;;;;;;3.85;1.80;;;;;;;21.01;37.22;102741.97;5091608;28;20028;-66
2022/04/30 08:49:22;;;;;;;4.15;2.00;;;;;;;21.03;37.13;102739.22;5092823;28;20038;-63
2022/04/30 08:51:47;;;;;;;3.92;1.80;;;;;;;21.04;37.10;102740.06;5092198;28;20020;-65
2022/04/30 08:54:12;;;;;;;4.63;1.70;;;;;;;21.05;37.05;102737.31;5091397;28;20024;-67
2022/04/30 08:56:37;;;;;;;4.07;1.93;;;;;;;21.07;37.18;102737.22;5092392;28;20280;-65
2022/04/30 08:59:06;;;;;;;4.20;2.00;;;;;;;21.05;37.03;102734.66;5092232;28;20269;-66
2022/04/30 09:01:44;;;;;;;3.70;1.70;;;;;;;21.04;36.92;102735.59;5099990;28;20355;-63
2022/04/30 09:04:09;;;;;;;5.25;2.10;;;;;;;21.01;37.07;102727.84;5112566;28;20035;-61
2022/04/30 09:06:44;;;;;;;4.17;1.70;;;;;;;21.00;37.25;102734.94;5109082;28;20028;-62
2022/04/30 09:09:09;;;;;;;5.07;1.98;;;;;;;20.99;37.02;102732.41;5091286;28;20750;-61
2022/04/30 09:11:38;;;;;;;3.73;1.70;;;;;;;20.95;37.14;102731.75;5092113;28;20127;-63
2022/04/30 09:14:03;;;;;;;6.15;1.98;;;;;;;20.98;37.10;102736.84;5091663;28;20819;-63
2022/04/30 09:16:28;;;;;;;5.97;1.90;;;;;;;20.95;37.16;102728.22;5093338;28;20063;-64
2022/04/30 09:19:02;;;;;;;3.87;1.97;;;;;;;20.94;37.12;102732.69;5092415;28;20028;-63
2022/04/30 09:21:27;;;;;;;3.45;1.83;;;;;;;20.94;37.21;102734.50;5091754;28;20275;-63
2022/04/30 09:24:02;;;;;;;5.70;1.80;;;;;;;20.94;37.30;102727.38;5094549;28;20024;-65
2022/04/30 09:26:39;;;;;;;3.85;1.83;;;;;;;20.95;37.07;102726.44;5096436;28;20387;-62
2022/04/30 09:29:19;;;;;;;4.55;1.88;;;;;;;20.94;37.22;102724.72;5095251;28;20016;-64
2022/04/30 09:31:50;;;;;;;4.75;1.80;;;;;;;20.99;37.15;102724.44;5098169;28;20520;-63
2022/04/30 09:39:43;;;;;;;3.88;1.60;;;;;;;21.11;37.02;102720.13;5096778;28;20027;-61
2022/04/30 09:42:08;;;;;;;5.37;1.90;;;;;;;21.14;36.88;102719.94;5095181;28;20036;-60
2022/04/30 09:44:36;;;;;;;3.70;1.70;;;;;;;21.15;36.79;102711.88;5096119;28;20288;-62
2022/04/30 09:47:04;;;;;;;4.32;1.63;;;;;;;21.16;36.69;102716.25;5095582;28;20056;-66
2022/04/30 09:55:00;;;;;;;3.50;1.90;;;;;;;21.11;36.29;102706.88;5095600;28;20042;-66
2022/04/30 09:57:27;;;;;;;4.47;2.03;;;;;;;21.10;36.58;102703.41;5095394;28;20020;-63
2022/04/30 09:59:56;;;;;;;3.45;1.67;;;;;;;21.13;36.66;102697.91;5095545;28;20041;-65
2022/04/30 10:02:24;;;;;;;3.53;1.85;;;;;;;21.15;36.59;102703.09;5095000;28;20126;-63
2022/04/30 10:04:50;;;;;;;5.63;2.83;;;;;;;21.14;36.43;102696.09;5094639;28;20020;-64
2022/04/30 10:07:22;;;;;;;4.60;2.25;;;;;;;21.15;36.53;102693.34;5097213;28;20036;-63
2022/04/30 10:09:55;;;;;;;5.13;1.98;;;;;;;21.19;36.31;102691.34;5096352;28;20030;-66
2022/04/30 10:12:35;;;;;;;3.40;1.58;;;;;;;21.23;36.39;102692.00;5096529;28;20079;-65
2022/04/30 10:15:14;;;;;;;4.05;1.83;;;;;;;21.28;36.07;102684.59;5096718;28;20119;-65
2022/04/30 10:17:42;;;;;;;3.95;1.95;;;;;;;21.31;36.06;102679.06;5095200;28;20044;-62
2022/04/30 10:20:21;;;;;;;4.05;1.83;;;;;;;21.34;35.82;102674.41;5095682;28;20940;-64
2022/04/30 10:22:53;;;;;;;4.07;1.58;;;;;;;21.38;35.84;102680.38;5096645;28;20035;-64
2022/04/30 10:25:47;;;;;;;5.47;1.80;;;;;;;21.41;35.72;102679.31;5096827;28;20032;-66
2022/04/30 10:28:23;;;;;;;2.60;1.42;;;;;;;21.43;35.54;102677.41;5096975;28;20024;-64
2022/04/30 10:30:59;;;;;;;3.92;2.10;;;;;;;21.44;35.74;102677.28;5096365;28;20041;-64
2022/04/30 10:33:25;;;;;;;3.88;1.67;;;;;;;21.45;35.51;102673.69;5098949;28;20042;-64
2022/04/30 10:36:03;;;;;;;4.80;1.73;;;;;;;21.46;35.41;102678.06;5095668;28;20131;-64
2022/04/30 10:38:29;;;;;;;3.53;1.95;;;;;;;21.47;35.46;102674.44;5096934;28;20024;-66
2022/04/30 10:40:59;;;;;;;3.35;1.75;;;;;;;21.48;35.48;102675.31;5094599;28;20127;-66
2022/04/30 10:43:36;;;;;;;4.07;1.70;;;;;;;21.50;35.52;102671.63;5095036;28;20051;-66
2022/04/30 10:46:17;;;;;;;4.07;1.55;;;;;;;21.51;35.65;102661.88;5093675;28;20467;-63
2022/04/30 10:48:42;;;;;;;5.57;1.52;;;;;;;21.51;35.55;102661.88;5094741;28;20052;-63
2022/04/30 10:51:11;;;;;;;4.05;1.77;;;;;;;21.51;35.52;102660.06;5094325;28;20070;-63
2022/04/30 10:53:42;;;;;;;4.78;2.20;;;;;;;21.50;35.19;102657.50;5093713;28;20468;-61
2022/04/30 10:56:08;;;;;;;3.85;1.65;;;;;;;21.44;34.91;102650.78;5094349;28;20024;-61
2022/04/30 10:58:35;;;;;;;7.20;1.90;;;;;;;21.42;35.31;102652.69;5094678;28;20494;-60
2022/04/30 11:01:18;;;;;;;3.33;1.40;;;;;;;21.38;35.49;102646.75;5093360;28;20482;-60
2022/04/30 11:03:45;;;;;;;3.40;1.67;;;;;;;21.37;35.28;102637.06;5094314;28;20463;-61
2022/04/30 11:06:11;;;;;;;5.65;1.80;;;;;;;21.35;35.49;102630.19;5093473;28;20020;-60
2022/04/30 11:08:37;;;;;;;2.78;1.63;;;;;;;21.30;35.56;102626.97;5093934;28;20032;-60
2022/04/30 11:11:02;;;;;;;5.43;1.70;;;;;;;21.29;35.89;102634.09;5094085;28;20055;-62
2022/04/30 11:13:27;;;;;;;3.67;1.63;;;;;;;21.27;35.87;102630.72;5093322;28;20060;-61
2022/04/30 11:16:00;;;;;;;4.20;1.70;;;;;;;21.25;35.70;102626.44;5094063;28;20035;-61
2022/04/30 11:18:25;;;;;;;5.47;1.60;;;;;;;21.23;35.71;102623.91;5094388;28;20387;-61
2022/04/30 11:21:00;;;;;;;4.63;1.98;;;;;;;21.24;35.74;102622.09;5093247;28;20111;-62
2022/04/30 11:23:26;;;;;;;3.08;1.48;;;;;;;21.23;35.81;102613.28;5094234;28;20116;-61
2022/04/30 11:25:51;;;;;;;4.97;1.65;;;;;;;21.23;35.71;102618.59;5093817;28;20523;-61
2022/04/30 11:28:17;;;;;;;4.90;1.80;;;;;;;21.23;35.70;102607.16;5093169;28;20349;-59
2022/04/30 11:30:44;;;;;;;4.30;1.67;;;;;;;21.22;35.83;102606.31;5094370;28;20034;-60
2022/04/30 11:33:11;;;;;;;5.15;1.75;;;;;;;21.23;35.63;102607.16;5093743;28;20035;-60
2022/04/30 11:35:36;;;;;;;3.08;1.77;;;;;;;21.24;35.44;102604.41;5097908;28;20111;-61
2022/04/30 11:38:07;;;;;;;3.67;1.92;;;;;;;21.23;35.34;102608.00;5097235;28;20116;-61
2022/04/30 11:40:32;;;;;;;4.70;2.08;;;;;;;21.22;35.87;102594.84;5096405;28;20051;-61
2022/04/30 11:42:59;;;;;;;3.97;1.70;;;;;;;21.20;35.69;102585.19;5094477;28;20491;-60
2022/04/30 11:45:28;;;;;;;3.95;1.73;;;;;;;21.19;35.42;102583.50;5095693;28;20107;-61
2022/04/30 11:47:55;;;;;;;4.95;1.50;;;;;;;21.17;35.63;102589.84;5094802;28;20110;-61
2022/04/30 11:50:25;;;;;;;4.10;1.55;;;;;;;21.15;35.48;102584.63;5092903;28;20039;-61
2022/04/30 11:52:53;;;;;;;4.20;1.77;;;;;;;21.14;35.38;102584.72;5093237;28;20070;-61
2022/04/30 11:55:22;;;;;;;6.95;1.70;;;;;;;21.14;35.12;102593.56;5092667;28;20049;-59
2022/04/30 11:57:49;;;;;;;3.28;1.70;;;;;;;21.15;35.48;102592.59;5093333;28;20482;-59
2022/04/30 12:00:16;;;;;;;4.32;1.65;;;;;;;21.15;34.94;102589.94;5093403;28;20034;-60
2022/04/30 12:02:48;;;;;;;5.95;1.80;;;;;;;21.16;34.64;102591.66;5092731;28;20035;-61